Time;durP1;ratioP1;P1;durP2;ratioP2;P2;SDS_P1;SDS_P2;PMS_P1;PMS_P2;Temp;Humidity;BMP_temperature;BMP_pressure;BME280_temperature;BME280_humidity;BME280_pressure;Samples;Min_cycle;Max_cycle;Signal;HPM_P1;HPM_P2
2023/05/07 00:00:59;;;;;;;0.20;0.13;;;;;;;;;;4931552;28;20043;-82
2023/05/07 00:03:26;;;;;;;0.20;0.10;;;;;;;;;;4928289;28;20635;-81
2023/05/07 00:05:52;;;;;;;0.65;0.32;;;;;;;;;;4949553;23;20044;-82
2023/05/07 00:08:19;;;;;;;0.30;0.30;;;;;;;;;;4904357;29;20047;-82
2023/05/07 00:13:46;;;;;;;0.35;0.30;;;;;;;;;;4900892;29;20062;-83
2023/05/07 00:16:12;;;;;;;1.75;0.63;;;;;;;;;;4908661;29;20387;-83
2023/05/07 00:18:38;;;;;;;0.20;0.10;;;;;;;;;;4893469;29;20051;-83
2023/05/07 00:21:05;;;;;;;0.85;0.30;;;;;;;;;;4901460;29;20525;-83
2023/05/07 00:23:31;;;;;;;0.32;0.20;;;;;;;;;;4915334;29;20052;-83
2023/05/07 00:25:57;;;;;;;0.20;0.10;;;;;;;;;;4901012;29;20510;-83
2023/05/07 00:28:23;;;;;;;0.30;0.30;;;;;;;;;;4900505;29;20168;-83
2023/05/07 00:30:49;;;;;;;0.30;0.20;;;;;;;;;;4899848;29;20048;-83
2023/05/07 00:33:15;;;;;;;0.32;0.32;;;;;;;;;;4913580;29;20039;-82
2023/05/07 00:35:41;;;;;;;0.43;0.43;;;;;;;;;;4906743;29;20047;-83
2023/05/07 00:38:07;;;;;;;0.30;0.30;;;;;;;;;;4910771;29;20126;-82
2023/05/07 00:40:35;;;;;;;0.43;0.43;;;;;;;;;;4901085;29;20044;-83
2023/05/07 00:43:02;;;;;;;0.50;0.40;;;;;;;;;;4915322;29;20130;-84
2023/05/07 00:45:31;;;;;;;0.88;0.85;;;;;;;;;;4912759;29;20245;-85
2023/05/07 00:48:01;;;;;;;1.25;1.15;;;;;;;;;;4914286;29;20043;-83
2023/05/07 00:50:33;;;;;;;0.30;0.28;;;;;;;;;;4917724;29;20099;-83
2023/05/07 00:53:02;;;;;;;0.30;0.30;;;;;;;;;;4897208;29;20153;-84
2023/05/07 00:55:35;;;;;;;1.00;0.75;;;;;;;;;;4902701;29;20047;-83
2023/05/07 00:58:08;;;;;;;0.50;0.30;;;;;;;;;;4901934;29;20107;-82
2023/05/07 01:00:37;;;;;;;0.30;0.30;;;;;;;;;;4903395;29;20422;-82
2023/05/07 01:03:11;;;;;;;0.20;0.20;;;;;;;;;;4915337;29;20050;-82
2023/05/07 01:05:40;;;;;;;0.65;0.20;;;;;;;;;;4987830;23;20063;-83
2023/05/07 01:08:16;;;;;;;;;;;;;;;;;;;;;
2023/05/07 01:10:47;;;;;;;0.30;0.30;;;;;;;;;;4928318;28;20047;-84
2023/05/07 01:13:13;;;;;;;0.43;0.20;;;;;;;;;;4917709;29;20716;-82
2023/05/07 01:15:41;;;;;;;0.40;0.40;;;;;;;;;;4947230;28;20066;-82
2023/05/07 01:18:13;;;;;;;0.20;0.20;;;;;;;;;;4934197;28;20177;-83
2023/05/07 01:21:00;;;;;;;;;;;;;;;;;;4929884;28;20047;-82
2023/05/07 01:27:12;;;;;;;0.82;0.57;;;;;;;;;;4879009;29;20049;-82
2023/05/07 01:29:58;;;;;;;0.32;0.32;;;;;;;;;;4860980;29;20072;-82
2023/05/07 01:32:56;;;;;;;0.22;0.22;;;;;;;;;;4878525;29;20191;-82
2023/05/07 01:35:37;;;;;;;0.65;0.30;;;;;;;;;;4896262;29;20048;-85
2023/05/07 01:38:09;;;;;;;0.20;0.15;;;;;;;;;;4926224;28;20095;-82
2023/05/07 01:40:47;;;;;;;0.93;0.45;;;;;;;;;;4927312;28;20047;-82
2023/05/07 01:46:42;;;;;;;0.20;0.20;;;;;;;;;;4911427;29;20113;-81
2023/05/07 01:49:09;;;;;;;0.30;0.23;;;;;;;;;;4946975;28;20494;-82
2023/05/07 01:51:41;;;;;;;0.30;0.25;;;;;;;;;;4917537;29;20070;-84
2023/05/07 01:54:15;;;;;;;0.63;0.63;;;;;;;;;;4935465;28;20426;-82
2023/05/07 01:56:57;;;;;;;0.20;0.20;;;;;;;;;;4925927;28;20043;-82
2023/05/07 01:59:26;;;;;;;0.20;0.10;;;;;;;;;;4920604;29;20048;-82
2023/05/07 02:01:57;;;;;;;0.98;0.90;;;;;;;;;;4929666;28;20600;-84
2023/05/07 02:04:44;;;;;;;0.73;0.63;;;;;;;;;;4928571;28;20163;-83
2023/05/07 02:07:12;;;;;;;0.57;0.47;;;;;;;;;;4916509;29;20094;-82
2023/05/07 02:10:10;;;;;;;0.70;0.55;;;;;;;;;;4947961;28;20043;-82
2023/05/07 02:12:50;;;;;;;0.20;0.10;;;;;;;;;;4951378;28;20090;-84
2023/05/07 02:15:26;;;;;;;2.17;0.57;;;;;;;;;;4919060;29;20039;-84
2023/05/07 02:18:02;;;;;;;0.22;0.20;;;;;;;;;;4931707;28;20043;-83
2023/05/07 02:20:49;;;;;;;0.20;0.10;;;;;;;;;;4935156;28;20055;-83
2023/05/07 02:23:15;;;;;;;0.35;0.35;;;;;;;;;;4948799;28;20403;-82
2023/05/07 02:29:05;;;;;;;0.52;0.52;;;;;;;;;;4915208;29;20047;-83
2023/05/07 02:31:40;;;;;;;0.20;0.20;;;;;;;;;;4936999;28;20051;-83
2023/05/07 02:34:26;;;;;;;0.20;0.10;;;;;;;;;;4930421;28;20653;-84
2023/05/07 02:37:04;;;;;;;0.30;0.30;;;;;;;;;;4920343;29;20482;-83
2023/05/07 02:39:31;;;;;;;0.30;0.30;;;;;;;;;;4950170;28;20046;-83
2023/05/07 02:42:35;;;;;;;0.35;0.35;;;;;;;;;;4935082;28;20043;-83
2023/05/07 02:48:21;;;;;;;0.80;0.80;;;;;;;;;;4920113;29;20380;-84
2023/05/07 02:51:06;;;;;;;0.65;0.65;;;;;;;;;;4910822;29;20039;-83
2023/05/07 02:53:32;;;;;;;1.17;0.73;;;;;;;;;;4951787;28;20372;-83
2023/05/07 02:56:07;;;;;;;0.30;0.28;;;;;;;;;;4930883;28;20043;-83
2023/05/07 02:58:36;;;;;;;0.20;0.08;;;;;;;;;;4917261;29;20040;-84
2023/05/07 03:01:11;;;;;;;0.40;0.40;;;;;;;;;;4915640;29;20043;-84
2023/05/07 03:03:37;;;;;;;0.20;0.10;;;;;;;;;;4949598;28;20035;-84
2023/05/07 03:06:03;;;;;;;0.77;0.77;;;;;;;;;;4901796;29;20619;-82
2023/05/07 03:08:29;;;;;;;0.55;0.38;;;;;;;;;;4916009;29;20043;-82
2023/05/07 03:10:55;;;;;;;0.85;0.35;;;;;;;;;;4933019;28;20047;-84
2023/05/07 03:13:21;;;;;;;0.73;0.63;;;;;;;;;;4932964;28;20044;-83
2023/05/07 03:15:47;;;;;;;0.40;0.40;;;;;;;;;;4904416;29;20494;-84
2023/05/07 03:18:13;;;;;;;0.20;0.17;;;;;;;;;;4897654;29;20036;-83
2023/05/07 03:20:39;;;;;;;0.60;0.50;;;;;;;;;;4934288;28;20889;-82
2023/05/07 03:23:05;;;;;;;0.45;0.45;;;;;;;;;;4937908;28;20441;-83
2023/05/07 03:25:32;;;;;;;0.20;0.10;;;;;;;;;;4950220;28;20043;-82
2023/05/07 03:27:58;;;;;;;0.40;0.40;;;;;;;;;;4933878;28;20044;-83
2023/05/07 03:30:24;;;;;;;0.30;0.30;;;;;;;;;;4934988;28;20042;-84
2023/05/07 03:32:50;;;;;;;0.35;0.30;;;;;;;;;;4949035;28;20043;-83
2023/05/07 03:35:16;;;;;;;0.47;0.47;;;;;;;;;;4932741;28;20543;-83
2023/05/07 03:37:42;;;;;;;0.30;0.20;;;;;;;;;;4934823;28;20349;-84
2023/05/07 03:40:10;;;;;;;0.20;0.10;;;;;;;;;;4921321;29;20043;-84
2023/05/07 03:42:36;;;;;;;0.73;0.73;;;;;;;;;;4918414;29;20047;-82
2023/05/07 03:45:02;;;;;;;0.20;0.13;;;;;;;;;;4917860;29;20043;-84
2023/05/07 03:47:28;;;;;;;0.30;0.30;;;;;;;;;;4915643;29;20411;-82
2023/05/07 03:49:54;;;;;;;0.20;0.20;;;;;;;;;;4955072;28;20465;-83
2023/05/07 03:52:25;;;;;;;0.65;0.40;;;;;;;;;;4932109;28;20040;-83
2023/05/07 03:54:54;;;;;;;1.02;0.80;;;;;;;;;;4921756;29;20068;-82
2023/05/07 03:57:20;;;;;;;0.50;0.47;;;;;;;;;;4922273;29;20122;-83
2023/05/07 03:59:49;;;;;;;2.05;0.30;;;;;;;;;;4950489;28;20732;-84
2023/05/07 04:02:15;;;;;;;0.75;0.60;;;;;;;;;;4934137;28;20036;-83
2023/05/07 04:04:41;;;;;;;0.30;0.30;;;;;;;;;;4938953;28;20044;-83
2023/05/07 04:07:07;;;;;;;0.32;0.20;;;;;;;;;;4933573;28;20545;-82
2023/05/07 04:09:33;;;;;;;0.40;0.40;;;;;;;;;;4916905;28;20593;-84
2023/05/07 04:11:59;;;;;;;0.20;0.10;;;;;;;;;;4938354;28;20043;-83
2023/05/07 04:14:25;;;;;;;0.20;0.13;;;;;;;;;;4934287;28;20044;-83
2023/05/07 04:16:51;;;;;;;0.20;0.20;;;;;;;;;;4920626;29;20039;-84
2023/05/07 04:19:17;;;;;;;0.20;0.13;;;;;;;;;;4910422;29;20054;-82
2023/05/07 04:21:43;;;;;;;0.55;0.55;;;;;;;;;;4904568;29;20559;-82
2023/05/07 04:24:12;;;;;;;0.80;0.38;;;;;;;;;;4932693;28;20043;-83
2023/05/07 04:26:38;;;;;;;0.43;0.30;;;;;;;;;;4947255;28;20043;-82
2023/05/07 04:29:04;;;;;;;0.30;0.20;;;;;;;;;;4949930;28;20422;-82
2023/05/07 04:31:30;;;;;;;0.30;0.20;;;;;;;;;;4917925;29;20464;-83
2023/05/07 04:33:56;;;;;;;0.57;0.57;;;;;;;;;;4941256;28;20126;-85
2023/05/07 04:36:22;;;;;;;0.20;0.10;;;;;;;;;;4916277;29;20349;-83
2023/05/07 04:38:48;;;;;;;0.38;0.38;;;;;;;;;;4952626;28;20123;-82
2023/05/07 04:41:14;;;;;;;0.20;0.20;;;;;;;;;;4937938;28;20372;-83
2023/05/07 04:43:41;;;;;;;0.25;0.20;;;;;;;;;;4924509;28;20179;-83
2023/05/07 04:46:07;;;;;;;0.40;0.32;;;;;;;;;;4931333;28;20415;-83
2023/05/07 04:48:33;;;;;;;0.30;0.30;;;;;;;;;;4952435;28;20051;-84
2023/05/07 04:50:59;;;;;;;0.20;0.10;;;;;;;;;;4922709;29;20055;-83
2023/05/07 04:53:25;;;;;;;1.55;0.43;;;;;;;;;;4917475;29;20079;-82
2023/05/07 04:55:58;;;;;;;0.20;0.20;;;;;;;;;;4933910;28;20035;-83
2023/05/07 04:58:24;;;;;;;0.35;0.35;;;;;;;;;;4949643;28;20394;-81
2023/05/07 05:00:50;;;;;;;1.17;1.08;;;;;;;;;;4916814;29;20067;-83
2023/05/07 05:03:16;;;;;;;0.43;0.30;;;;;;;;;;4935568;28;20051;-83
2023/05/07 05:05:45;;;;;;;0.30;0.30;;;;;;;;;;4910472;29;20052;-85
2023/05/07 05:08:11;;;;;;;0.20;0.10;;;;;;;;;;4916026;29;20051;-84
2023/05/07 05:10:37;;;;;;;0.20;0.20;;;;;;;;;;4950442;28;20057;-83
2023/05/07 05:13:03;;;;;;;0.20;0.10;;;;;;;;;;4918099;29;20036;-82
2023/05/07 05:15:29;;;;;;;2.08;1.55;;;;;;;;;;4950941;28;20558;-83
2023/05/07 05:17:55;;;;;;;0.73;0.50;;;;;;;;;;4916955;29;20833;-83
2023/05/07 05:20:21;;;;;;;0.52;0.52;;;;;;;;;;4931833;28;20074;-83
2023/05/07 05:22:47;;;;;;;0.20;0.10;;;;;;;;;;4935002;28;20888;-84
2023/05/07 05:25:13;;;;;;;0.20;0.20;;;;;;;;;;4933759;28;20040;-83
2023/05/07 05:27:39;;;;;;;0.20;0.10;;;;;;;;;;4914558;29;20036;-83
2023/05/07 05:30:06;;;;;;;0.40;0.40;;;;;;;;;;4916656;29;20167;-85
2023/05/07 05:32:32;;;;;;;0.20;0.10;;;;;;;;;;4930398;28;20087;-83
2023/05/07 05:34:58;;;;;;;0.20;0.20;;;;;;;;;;4946651;28;20469;-83
2023/05/07 05:37:24;;;;;;;0.63;0.47;;;;;;;;;;4944451;28;20075;-83
2023/05/07 05:39:54;;;;;;;1.10;0.70;;;;;;;;;;4900383;29;20268;-84
2023/05/07 05:42:20;;;;;;;0.20;0.20;;;;;;;;;;4934351;28;20040;-85
2023/05/07 05:44:46;;;;;;;0.30;0.30;;;;;;;;;;4952079;28;20443;-85
2023/05/07 05:47:12;;;;;;;0.30;0.30;;;;;;;;;;4906935;29;20091;-84
2023/05/07 05:49:38;;;;;;;1.55;1.45;;;;;;;;;;4935807;28;20039;-84
2023/05/07 05:52:04;;;;;;;0.20;0.10;;;;;;;;;;4934630;28;20126;-84
2023/05/07 05:54:30;;;;;;;0.95;0.95;;;;;;;;;;4918211;29;20122;-84
2023/05/07 05:56:56;;;;;;;0.30;0.30;;;;;;;;;;4918842;29;20036;-84
2023/05/07 05:59:22;;;;;;;0.30;0.20;;;;;;;;;;4931635;28;20127;-85
2023/05/07 06:01:49;;;;;;;0.20;0.10;;;;;;;;;;4916922;29;20047;-85
2023/05/07 06:06:43;;;;;;;0.50;0.50;;;;;;;;;;4931778;28;20051;-81
2023/05/07 06:09:09;;;;;;;0.20;0.10;;;;;;;;;;4920348;28;20042;-81
2023/05/07 06:11:35;;;;;;;0.47;0.47;;;;;;;;;;4946456;28;20087;-80
2023/05/07 06:14:01;;;;;;;0.47;0.30;;;;;;;;;;4940296;28;20039;-80
2023/05/07 06:16:27;;;;;;;0.20;0.20;;;;;;;;;;4903152;29;20471;-80
2023/05/07 06:18:53;;;;;;;0.20;0.20;;;;;;;;;;4917488;29;20040;-80
2023/05/07 06:21:19;;;;;;;0.20;0.00;;;;;;;;;;4901487;29;20479;-80
2023/05/07 06:23:45;;;;;;;0.20;0.10;;;;;;;;;;4899222;29;20063;-83
2023/05/07 06:26:11;;;;;;;0.20;0.10;;;;;;;;;;4904484;29;20040;-81
2023/05/07 06:28:37;;;;;;;0.20;0.20;;;;;;;;;;4903274;29;20402;-82
2023/05/07 06:31:12;;;;;;;0.22;0.10;;;;;;;;;;4917410;29;20541;-81
2023/05/07 06:33:39;;;;;;;0.30;0.30;;;;;;;;;;4899380;29;20040;-83
2023/05/07 06:36:05;;;;;;;0.40;0.32;;;;;;;;;;4912495;29;20311;-80
2023/05/07 06:38:31;;;;;;;0.20;0.10;;;;;;;;;;4925158;28;20102;-79
2023/05/07 06:40:57;;;;;;;0.32;0.32;;;;;;;;;;4926002;28;20722;-80
2023/05/07 06:43:23;;;;;;;0.30;0.30;;;;;;;;;;4925206;28;20046;-82
2023/05/07 06:45:49;;;;;;;0.60;0.45;;;;;;;;;;4915482;29;20127;-82
2023/05/07 06:48:15;;;;;;;0.60;0.55;;;;;;;;;;4913676;29;20175;-81
2023/05/07 06:50:42;;;;;;;0.20;0.10;;;;;;;;;;4910562;29;20039;-81
2023/05/07 06:53:08;;;;;;;0.20;0.20;;;;;;;;;;4924538;29;20039;-81
2023/05/07 06:55:34;;;;;;;0.30;0.28;;;;;;;;;;4909968;29;20098;-80
2023/05/07 06:58:00;;;;;;;0.40;0.38;;;;;;;;;;4925419;29;20851;-81
2023/05/07 07:00:30;;;;;;;0.28;0.22;;;;;;;;;;4943238;28;20035;-82
2023/05/07 07:03:04;;;;;;;0.32;0.32;;;;;;;;;;4922112;29;20067;-83
2023/05/07 07:05:32;;;;;;;0.20;0.20;;;;;;;;;;4927456;29;20043;-81
2023/05/07 07:08:01;;;;;;;2.80;1.00;;;;;;;;;;4918564;29;20070;-82
2023/05/07 07:10:27;;;;;;;0.20;0.20;;;;;;;;;;4918999;29;20051;-82
2023/05/07 07:13:10;;;;;;;0.30;0.20;;;;;;;;;;4917651;29;20231;-81
2023/05/07 07:15:36;;;;;;;0.77;0.38;;;;;;;;;;4918320;29;20046;-80
2023/05/07 07:18:02;;;;;;;0.20;0.10;;;;;;;;;;4914338;29;20036;-80
2023/05/07 07:20:37;;;;;;;0.20;0.10;;;;;;;;;;4915756;29;20047;-80
2023/05/07 07:23:06;;;;;;;3.20;1.08;;;;;;;;;;4902830;29;20050;-81
2023/05/07 07:25:40;;;;;;;0.52;0.47;;;;;;;;;;4914995;29;20048;-80
2023/05/07 07:28:18;;;;;;;0.32;0.30;;;;;;;;;;4921081;29;20101;-82
2023/05/07 07:30:49;;;;;;;0.20;0.20;;;;;;;;;;4934556;28;20064;-84
2023/05/07 07:33:45;;;;;;;0.25;0.20;;;;;;;;;;4896819;29;20055;-81
2023/05/07 07:36:31;;;;;;;0.20;0.10;;;;;;;;;;4904586;29;20047;-80
2023/05/07 07:39:00;;;;;;;0.20;0.20;;;;;;;;;;4929457;28;20051;-81
2023/05/07 07:41:37;;;;;;;0.20;0.13;;;;;;;;;;4917038;29;20051;-81
2023/05/07 07:44:12;;;;;;;0.40;0.35;;;;;;;;;;4901286;29;20039;-84
2023/05/07 07:46:50;;;;;;;1.58;1.10;;;;;;;;;;4920779;29;20110;-83
2023/05/07 07:49:17;;;;;;;0.32;0.32;;;;;;;;;;4903544;29;20098;-79
2023/05/07 07:52:18;;;;;;;1.05;0.85;;;;;;;;;;4916488;29;20048;-83
2023/05/07 07:55:03;;;;;;;0.25;0.15;;;;;;;;;;4914497;29;20179;-82
2023/05/07 07:57:29;;;;;;;0.45;0.32;;;;;;;;;;4923181;29;20040;-80
2023/05/07 07:59:58;;;;;;;0.65;0.35;;;;;;;;;;4916549;28;20518;-82
2023/05/07 08:02:37;;;;;;;;;;;;;;;;;;;;;
2023/05/07 08:05:07;;;;;;;0.55;0.47;;;;;;;;;;4913653;29;20051;-81
2023/05/07 08:08:11;;;;;;;0.30;0.30;;;;;;;;;;5083528;27;20932;-83
2023/05/07 08:11:21;;;;;;;0.20;0.10;;;;;;;;;;5072203;28;20071;-83
2023/05/07 08:13:54;;;;;;;0.20;0.10;;;;;;;;;;5044492;28;20051;-82
2023/05/07 08:16:28;;;;;;;0.40;0.30;;;;;;;;;;5052766;28;20050;-86
2023/05/07 08:19:00;;;;;;;0.20;0.10;;;;;;;;;;5052356;28;20040;-84
2023/05/07 08:21:44;;;;;;;1.58;0.28;;;;;;;;;;5074450;28;20459;-85
2023/05/07 08:24:10;;;;;;;0.20;0.20;;;;;;;;;;5047539;28;22693;-83
2023/05/07 08:26:38;;;;;;;0.30;0.30;;;;;;;;;;5055336;28;20036;-83
2023/05/07 08:29:07;;;;;;;0.20;0.10;;;;;;;;;;5057843;28;20119;-80
2023/05/07 08:31:33;;;;;;;0.45;0.35;;;;;;;;;;5055081;28;21320;-83
2023/05/07 08:34:13;;;;;;;0.30;0.20;;;;;;;;;;5060139;28;20050;-84
2023/05/07 08:36:56;;;;;;;0.35;0.22;;;;;;;;;;5060877;28;20131;-83
2023/05/07 08:39:44;;;;;;;0.50;0.20;;;;;;;;;;5065809;28;20040;-84
2023/05/07 08:42:12;;;;;;;0.20;0.10;;;;;;;;;;5078317;28;20053;-84
2023/05/07 08:44:42;;;;;;;0.95;0.40;;;;;;;;;;5074708;28;20044;-83
2023/05/07 08:47:18;;;;;;;0.20;0.10;;;;;;;;;;5062973;28;20525;-83
2023/05/07 08:49:44;;;;;;;0.20;0.20;;;;;;;;;;5067977;28;20048;-81
2023/05/07 08:52:26;;;;;;;1.40;0.60;;;;;;;;;;5059472;28;20236;-83
2023/05/07 08:55:04;;;;;;;0.20;0.10;;;;;;;;;;5058112;28;20032;-85
2023/05/07 09:00:37;;;;;;;;;;;;;;;;;;5042898;28;20574;-83
2023/05/07 09:03:03;;;;;;;0.68;0.32;;;;;;;;;;5051412;28;19920;-82
2023/05/07 09:05:32;;;;;;;0.32;0.30;;;;;;;;;;5057790;28;20412;-82
2023/05/07 09:08:10;;;;;;;0.20;0.10;;;;;;;;;;5054514;28;20650;-84
2023/05/07 09:10:54;;;;;;;0.38;0.38;;;;;;;;;;5056079;28;20421;-83
2023/05/07 09:13:27;;;;;;;0.20;0.20;;;;;;;;;;5071800;28;20131;-84
2023/05/07 09:16:15;;;;;;;0.50;0.47;;;;;;;;;;5055252;28;20052;-85
2023/05/07 09:18:44;;;;;;;0.50;0.50;;;;;;;;;;5056318;28;20064;-84
2023/05/07 09:21:41;;;;;;;0.20;0.20;;;;;;;;;;5028344;28;20051;-86
2023/05/07 09:24:40;;;;;;;;;;;;;;;;;;;;;
2023/05/07 09:27:37;;;;;;;0.52;0.52;;;;;;;;;;5055443;28;20056;-86
2023/05/07 09:30:38;;;;;;;0.38;0.30;;;;;;;;;;5062001;28;20066;-86
2023/05/07 09:37:03;;;;;;;0.40;0.20;;;;;;;;;;5058376;28;20049;-81
2023/05/07 09:40:08;;;;;;;0.63;0.47;;;;;;;;;;5045712;28;22305;-85
2023/05/07 09:48:57;;;;;;;0.50;0.30;;;;;;;;;;5052285;28;20131;-85
2023/05/07 09:51:51;;;;;;;0.60;0.30;;;;;;;;;;5060825;28;20041;-85
2023/05/07 09:54:31;;;;;;;0.35;0.30;;;;;;;;;;5059576;28;20528;-86
2023/05/07 10:01:21;;;;;;;;;;;;;;;;;;;;;
2023/05/07 10:04:12;;;;;;;0.20;0.10;;;;;;;;;;4959182;28;20051;-84
2023/05/07 10:06:53;;;;;;;0.38;0.30;;;;;;;;;;4961957;28;20534;-83
2023/05/07 10:09:48;;;;;;;;;;;;;;;;;;;;;
2023/05/07 10:12:21;;;;;;;0.20;0.10;;;;;;;;;;5058652;28;20081;-85
2023/05/07 10:15:10;;;;;;;0.40;0.30;;;;;;;;;;5057370;28;20048;-86
2023/05/07 10:17:46;;;;;;;0.43;0.43;;;;;;;;;;5054168;28;20878;-86
2023/05/07 10:27:08;;;;;;;0.20;0.17;;;;;;;;;;5001909;28;20165;-90
2023/05/07 10:29:59;;;;;;;0.20;0.20;;;;;;;;;;5041965;28;20452;-86
2023/05/07 10:32:31;;;;;;;0.30;0.20;;;;;;;;;;5037586;28;20113;-88
2023/05/07 10:38:55;;;;;;;0.20;0.00;;;;;;;;;;5017095;28;20101;-87
2023/05/07 10:41:52;;;;;;;0.20;0.10;;;;;;;;;;5014891;28;20475;-86
2023/05/07 10:44:33;;;;;;;0.40;0.40;;;;;;;;;;5037941;28;20036;-85
2023/05/07 10:56:50;;;;;;;0.32;0.32;;;;;;;;;;5028193;28;20045;-82
2023/05/07 10:59:48;;;;;;;0.20;0.10;;;;;;;;;;5002283;28;20049;-84
2023/05/07 11:02:31;;;;;;;0.20;0.10;;;;;;;;;;4987538;28;20575;-85
2023/05/07 11:05:26;;;;;;;0.82;0.22;;;;;;;;;;5056639;28;20043;-85
2023/05/07 11:11:43;;;;;;;0.25;0.20;;;;;;;;;;5036717;28;20127;-88
2023/05/07 11:15:00;;;;;;;;;;;;;;;;;;;;;
2023/05/07 11:18:04;;;;;;;0.60;0.50;;;;;;;;;;5057903;28;20101;-84
2023/05/07 11:20:53;;;;;;;0.28;0.20;;;;;;;;;;5041658;28;20736;-82
2023/05/07 11:26:52;;;;;;;0.20;0.20;;;;;;;;;;5043376;28;20045;-86
2023/05/07 11:30:22;;;;;;;1.90;0.40;;;;;;;;;;5044228;28;20041;-87
2023/05/07 11:32:51;;;;;;;0.40;0.40;;;;;;;;;;5033152;28;20052;-86
2023/05/07 11:35:43;;;;;;;0.43;0.43;;;;;;;;;;5045262;28;20118;-88
2023/05/07 11:41:46;;;;;;;0.65;0.40;;;;;;;;;;4982783;28;20149;-84
2023/05/07 11:44:40;;;;;;;1.10;0.63;;;;;;;;;;5047179;28;20074;-85
2023/05/07 11:47:09;;;;;;;0.20;0.10;;;;;;;;;;5035525;28;20036;-85
2023/05/07 11:49:58;;;;;;;0.40;0.20;;;;;;;;;;5046137;28;20080;-87
2023/05/07 11:52:38;;;;;;;0.20;0.15;;;;;;;;;;5046157;28;20638;-86
2023/05/07 11:55:26;;;;;;;0.68;0.43;;;;;;;;;;5045546;28;20039;-85
2023/05/07 11:58:23;;;;;;;0.20;0.10;;;;;;;;;;5043679;28;20425;-88
2023/05/07 12:01:09;;;;;;;0.20;0.20;;;;;;;;;;5065015;28;20409;-89
2023/05/07 12:03:56;;;;;;;0.50;0.40;;;;;;;;;;5044907;28;20072;-90
2023/05/07 12:06:22;;;;;;;0.25;0.15;;;;;;;;;;5180270;22;20058;-85
2023/05/07 12:08:48;;;;;;;0.20;0.20;;;;;;;;;;4982272;28;20042;-86
2023/05/07 12:11:24;;;;;;;0.28;0.20;;;;;;;;;;4970437;28;20045;-86
2023/05/07 12:13:56;;;;;;;0.20;0.20;;;;;;;;;;4969782;28;20041;-83
2023/05/07 12:16:22;;;;;;;0.20;0.10;;;;;;;;;;4985653;28;20036;-87
2023/05/07 12:18:54;;;;;;;0.75;0.75;;;;;;;;;;4989909;28;20056;-83
2023/05/07 12:21:21;;;;;;;0.30;0.10;;;;;;;;;;5007244;28;20435;-86
2023/05/07 12:23:53;;;;;;;0.20;0.20;;;;;;;;;;4987174;28;20057;-86
2023/05/07 12:26:21;;;;;;;0.35;0.22;;;;;;;;;;5003612;28;20048;-86
2023/05/07 12:28:59;;;;;;;0.25;0.20;;;;;;;;;;5021161;28;20053;-86
2023/05/07 12:31:48;;;;;;;0.68;0.50;;;;;;;;;;4986857;28;20073;-86
2023/05/07 12:34:26;;;;;;;0.20;0.10;;;;;;;;;;5005074;28;20096;-85
2023/05/07 12:36:55;;;;;;;1.25;0.77;;;;;;;;;;4987381;28;20033;-89
2023/05/07 12:39:30;;;;;;;0.60;0.45;;;;;;;;;;4988930;28;21035;-87
2023/05/07 12:42:29;;;;;;;0.40;0.20;;;;;;;;;;4969004;28;20060;-91
2023/05/07 12:44:55;;;;;;;0.20;0.20;;;;;;;;;;4963678;28;20065;-86
2023/05/07 12:47:24;;;;;;;0.20;0.20;;;;;;;;;;4985684;28;20450;-87
2023/05/07 12:49:51;;;;;;;0.45;0.43;;;;;;;;;;5010341;28;20045;-87
2023/05/07 12:52:20;;;;;;;0.45;0.40;;;;;;;;;;5006945;28;20581;-84
2023/05/07 12:54:48;;;;;;;0.30;0.30;;;;;;;;;;4988402;28;20042;-84
2023/05/07 12:57:14;;;;;;;0.40;0.20;;;;;;;;;;4995640;28;20044;-87
2023/05/07 12:59:43;;;;;;;0.20;0.10;;;;;;;;;;4988935;28;20041;-84
2023/05/07 13:02:09;;;;;;;0.40;0.40;;;;;;;;;;5011132;28;20037;-85
2023/05/07 13:04:38;;;;;;;0.20;0.10;;;;;;;;;;5012315;28;20405;-86
2023/05/07 13:07:12;;;;;;;0.20;0.15;;;;;;;;;;4996071;28;20040;-83
2023/05/07 13:09:48;;;;;;;0.50;0.50;;;;;;;;;;5002610;28;20033;-86
2023/05/07 13:12:17;;;;;;;0.20;0.10;;;;;;;;;;5010395;28;20048;-86
2023/05/07 13:14:46;;;;;;;0.20;0.10;;;;;;;;;;4991982;28;20044;-85
2023/05/07 13:17:13;;;;;;;0.40;0.30;;;;;;;;;;5007326;28;20049;-84
2023/05/07 13:19:39;;;;;;;1.05;0.25;;;;;;;;;;4989651;28;20037;-85
2023/05/07 13:22:08;;;;;;;0.30;0.30;;;;;;;;;;4995723;28;20201;-85
2023/05/07 13:24:37;;;;;;;0.20;0.10;;;;;;;;;;4991612;28;20413;-84
2023/05/07 13:27:04;;;;;;;0.30;0.22;;;;;;;;;;4992138;28;20041;-86
2023/05/07 13:29:33;;;;;;;0.20;0.10;;;;;;;;;;4993215;28;20048;-84
2023/05/07 13:32:00;;;;;;;0.20;0.10;;;;;;;;;;4995330;28;20081;-84
2023/05/07 13:34:28;;;;;;;0.57;0.40;;;;;;;;;;4995479;28;20049;-82
2023/05/07 13:36:57;;;;;;;0.30;0.25;;;;;;;;;;5009258;28;20045;-85
2023/05/07 13:39:23;;;;;;;0.40;0.40;;;;;;;;;;4996240;28;21268;-84
2023/05/07 13:41:49;;;;;;;0.47;0.47;;;;;;;;;;5011957;28;20494;-84
2023/05/07 13:44:19;;;;;;;0.20;0.15;;;;;;;;;;4997952;28;20049;-85
2023/05/07 13:46:45;;;;;;;0.20;0.20;;;;;;;;;;5007898;28;20566;-85
2023/05/07 13:49:12;;;;;;;0.40;0.25;;;;;;;;;;4993909;28;20041;-87
2023/05/07 13:51:38;;;;;;;0.20;0.20;;;;;;;;;;4993202;28;20053;-83
2023/05/07 13:54:04;;;;;;;0.60;0.28;;;;;;;;;;4993772;28;21224;-83
2023/05/07 13:56:32;;;;;;;0.40;0.40;;;;;;;;;;5011198;28;20044;-85
2023/05/07 13:59:05;;;;;;;0.20;0.10;;;;;;;;;;5028087;28;20550;-85
2023/05/07 14:01:31;;;;;;;0.35;0.30;;;;;;;;;;4995546;28;20060;-84
2023/05/07 14:03:59;;;;;;;0.20;0.10;;;;;;;;;;4987591;28;20128;-82
2023/05/07 14:06:25;;;;;;;0.20;0.10;;;;;;;;;;5005917;28;20060;-84
2023/05/07 14:08:51;;;;;;;0.22;0.20;;;;;;;;;;5001657;28;20813;-86
2023/05/07 14:11:21;;;;;;;0.28;0.20;;;;;;;;;;4990367;28;20037;-85
2023/05/07 14:13:47;;;;;;;0.30;0.20;;;;;;;;;;4993083;28;20422;-83
2023/05/07 14:16:13;;;;;;;0.40;0.20;;;;;;;;;;5023605;28;20033;-84
2023/05/07 14:18:39;;;;;;;0.50;0.25;;;;;;;;;;5009542;28;20080;-85
2023/05/07 14:21:09;;;;;;;0.30;0.30;;;;;;;;;;4990332;28;20089;-84
2023/05/07 14:23:35;;;;;;;0.28;0.28;;;;;;;;;;5000229;28;20073;-84
2023/05/07 14:26:01;;;;;;;0.47;0.15;;;;;;;;;;4985417;28;20053;-84
2023/05/07 14:28:27;;;;;;;0.40;0.38;;;;;;;;;;4981562;28;20517;-86
2023/05/07 14:30:54;;;;;;;0.30;0.20;;;;;;;;;;5008105;28;20064;-88
2023/05/07 14:33:20;;;;;;;0.30;0.20;;;;;;;;;;5010803;28;20041;-83
2023/05/07 14:35:48;;;;;;;0.20;0.20;;;;;;;;;;4981447;28;20084;-85
2023/05/07 14:38:17;;;;;;;0.30;0.20;;;;;;;;;;4994350;28;20049;-84
2023/05/07 14:40:43;;;;;;;0.20;0.13;;;;;;;;;;5005745;28;20044;-83
2023/05/07 14:43:09;;;;;;;0.30;0.20;;;;;;;;;;4999455;28;20037;-85
2023/05/07 14:45:35;;;;;;;1.30;0.45;;;;;;;;;;4990536;28;20044;-85
2023/05/07 14:48:01;;;;;;;0.43;0.40;;;;;;;;;;5004149;28;20442;-84
2023/05/07 14:50:27;;;;;;;0.60;0.57;;;;;;;;;;4990992;28;20147;-84
2023/05/07 14:52:53;;;;;;;0.50;0.25;;;;;;;;;;5004096;28;20095;-82
2023/05/07 14:55:21;;;;;;;0.82;0.52;;;;;;;;;;5003637;28;20076;-86
2023/05/07 14:57:47;;;;;;;0.50;0.40;;;;;;;;;;5002435;28;20037;-85
2023/05/07 15:00:14;;;;;;;0.40;0.30;;;;;;;;;;5002942;28;20052;-84
2023/05/07 15:02:40;;;;;;;0.30;0.30;;;;;;;;;;4986746;28;20045;-86
2023/05/07 15:05:14;;;;;;;0.55;0.55;;;;;;;;;;4986173;28;20041;-84
2023/05/07 15:07:40;;;;;;;0.63;0.63;;;;;;;;;;4979703;28;20029;-85
2023/05/07 15:10:07;;;;;;;0.20;0.10;;;;;;;;;;5018066;28;20037;-83
2023/05/07 15:12:33;;;;;;;0.30;0.30;;;;;;;;;;5007367;28;20038;-83
2023/05/07 15:14:58;;;;;;;0.20;0.20;;;;;;;;;;5002112;28;20091;-83
2023/05/07 15:17:24;;;;;;;0.30;0.25;;;;;;;;;;5019546;28;20038;-85
2023/05/07 15:19:53;;;;;;;0.30;0.10;;;;;;;;;;4993617;28;20037;-84
2023/05/07 15:22:21;;;;;;;0.20;0.10;;;;;;;;;;5002484;28;21269;-86
2023/05/07 15:24:50;;;;;;;0.20;0.15;;;;;;;;;;4998851;28;20049;-86
2023/05/07 15:27:19;;;;;;;0.35;0.20;;;;;;;;;;4999708;28;20913;-84
2023/05/07 15:29:45;;;;;;;0.40;0.40;;;;;;;;;;5004146;28;20095;-84
2023/05/07 15:32:11;;;;;;;1.08;0.52;;;;;;;;;;4997354;28;20033;-84
2023/05/07 15:34:37;;;;;;;0.57;0.47;;;;;;;;;;5020870;28;20107;-83
2023/05/07 15:37:03;;;;;;;0.50;0.50;;;;;;;;;;5001400;28;20045;-84
2023/05/07 15:39:30;;;;;;;1.90;0.82;;;;;;;;;;5006077;28;20044;-85
2023/05/07 15:41:56;;;;;;;0.30;0.20;;;;;;;;;;4988315;28;20124;-84
2023/05/07 15:44:27;;;;;;;1.10;0.93;;;;;;;;;;5022843;28;20049;-84
2023/05/07 15:47:01;;;;;;;0.68;0.57;;;;;;;;;;4981217;28;20049;-84
2023/05/07 15:49:41;;;;;;;2.25;1.73;;;;;;;;;;4988877;28;20042;-84
2023/05/07 15:52:16;;;;;;;2.15;1.42;;;;;;;;;;4988521;28;20558;-85
2023/05/07 15:54:42;;;;;;;2.40;1.52;;;;;;;;;;4989228;28;20034;-84
2023/05/07 15:57:15;;;;;;;0.45;0.45;;;;;;;;;;5009588;28;20044;-84
2023/05/07 15:59:42;;;;;;;0.30;0.25;;;;;;;;;;5003254;28;20124;-84
2023/05/07 16:02:09;;;;;;;0.40;0.40;;;;;;;;;;4985029;28;20517;-82
2023/05/07 16:04:35;;;;;;;1.48;0.85;;;;;;;;;;4989684;28;20022;-88
2023/05/07 16:07:01;;;;;;;0.82;0.82;;;;;;;;;;5007662;28;20037;-84
2023/05/07 16:09:29;;;;;;;0.20;0.20;;;;;;;;;;4989499;28;20048;-86
2023/05/07 16:11:55;;;;;;;0.40;0.40;;;;;;;;;;4989643;28;20481;-86
2023/05/07 16:14:22;;;;;;;0.20;0.10;;;;;;;;;;5001378;28;20041;-85
2023/05/07 16:17:12;;;;;;;0.40;0.28;;;;;;;;;;4996143;28;20048;-85
2023/05/07 16:19:38;;;;;;;0.40;0.30;;;;;;;;;;5013181;28;20526;-84
2023/05/07 16:22:07;;;;;;;0.30;0.28;;;;;;;;;;4995979;28;20425;-83
2023/05/07 16:24:33;;;;;;;0.45;0.45;;;;;;;;;;4987916;28;20826;-84